Portada
METAR-TAF:

METAR-TAF

Aeroports :

Şırnak, Turquia

latitud: 37-21-50N, longitud: 42-03-36E, altitud: 621 m

Observació

L'informe es va fer fa 1 hora i 35 minuts, a les 04:50 UTC
Vent 7 kt del Oest/Sud-Oest
Temperatura 5°C
Humitat 87%
Pressió 1020 hPa
Visibilitat: 9000 m

METAR: LTCV 060450Z 25007KT 9000 NSC 05/03 Q1020

Hora: 09:25 (06:25 UTC)

Pronòstic

L'informe es va fer fa 1 hora i 45 minuts, a les 04:40 UTC
Pronòstic vàlid del 06 a les 06 UTC al 07 a les 06 UTC
Vent 2 kt amb direcció variable
Visibilitat 10 km o més
sense núvols per sota de 1500 mi sense presència de cumulonimbus.
Evolucionant progressivament
l' 06 a les 09 UTC al 06 a les 12 UTC
Escasses núvols a una alçada de 4000 ft
Núvols disperses a una alçada de 10000 ft

TAF: LTCV 060440Z 0606/0706 VRB02KT CAVOK BECMG 0609/0612 FEW040 SCT100

Observacions i pronòstics meteorològics de més de 4000 aeroports (METAR i TAF).

Les estacions disponibles són els punts grocs i vermells al mapa.

Posi el ratolí al punt desitjat per veure el nom de l'estació.

Feu clic per veure les observacions i els pronòstics meteorològics.

Per canviar el mapa: feu clic els botons verds amb una creu de color negre per apropar; al botó verd amb un guió per allunyar la imatge; o en les fletxes verdes per a mapes adjacents.


METAR-TAF: